x

Ne Bahamas - 350 Nm Ene Of Nassau, Bahamas (41047) Wave Buoy

12:50am - Tue 27th Jan 2015 All times are UTC.

  • Sig Wave height 10.8ft
  • Swell Direction
  • Peak Period 8s
  • Average Period 6s
  • Wind
    29mph, 36mph gusts
  • Sea Temp 76°f
  • Air Temp 74°f
  • Sea Pressure 1008.1mb

More Historic Weather Station data

Upgrade to MSW Pro to gain access to the past 30 days of data for over 8000 Wavebouys and Weather Stations around the globe.

Join Pro

Comparision Forecast

View Surf forecast
   
Tue 01/27 12:50am 11ft 8s 6s 29 36 mph 1008.1mb 76f 74f
Mon 01/26 11:50pm 10ft 7s 6s 29 36 mph 1007.6mb 76f 74f
10:50pm 9ft 6s 6s 34 40 mph 1006.8mb 76f 75f
9:50pm 7.5ft 6s 5s 27 34 mph 1007.1mb 76f 73f
8:50pm 7ft 6s 5s 27 34 mph 1007.3mb 76f 75f
7:50pm 6ft 5s 5s 25 31 mph 1007.2mb 76f 72f
6:50pm 5ft 8s 6s 27 43 mph 1006.9mb 76f 73f
5:50pm 5ft 9s 6s 20 25 mph 1008.7mb 76f 73f
4:50pm 5.5ft 8s 7s 16 22 mph 1010.4mb 76f 70f
3:50pm 5.5ft 8s 7s 7 9 mph 1011.7mb 76f 73f
2:50pm 5ft 9s 7s 7
mph
1012.6mb 76f 72f
1:50pm 5ft 8s 7s 4 7 mph 1013.1mb 76f 71f
12:50pm 5ft 8s 7s 4 7 mph 1013.1mb 76f 71f
11:50am 5ft 9s 7s 7 9 mph 1012.6mb 76f 71f
10:50am 5.5ft 8s 7s 7 9 mph 1012.6mb 76f 71f
9:50am 5.5ft 9s 7s 2 4 mph 1013.2mb 76f 71f
8:50am 5.5ft 8s 7s 2 4 mph 1013.2mb 76f 70f
7:50am 5.5ft 9s 7s 2 4 mph 1013.9mb 76f 71f
6:50am 6ft 10s 7s 4 7 mph 1014.5mb 76f 72f
5:50am 6ft 10s 7s  -  2 mph 1014.6mb 76f 72f
4:50am 6.5ft 10s 7s 4
mph
1015mb 76f 72f
3:50am 6.5ft 10s 7s  -  2 mph 1015.4mb 76f 72f
2:50am 7ft 10s 7s 2 4 mph 1015.3mb 76f 72f
1:50am 6.5ft 10s 7s  -  2 mph 1015.5mb 76f 72f
12:50am 7ft 11s 7s 2 7 mph 1016mb 76f 72f
Sun 01/25 11:50pm 7ft 10s 7s 2 7 mph 1015.9mb 76f 72f
10:50pm 7ft 11s 7s 7 11 mph 1015.5mb 76f 72f
9:50pm 7ft 10s 7s 4 9 mph 1014.9mb 76f 72f
8:50pm 8ft 9s 7s 7 9 mph 1014.8mb 76f 72f
7:50pm 8ft 10s 7s 9 13 mph 1014.7mb 76f 72f
6:50pm 8.5ft 10s 7s 9 11 mph 1014.6mb 76f 72f
5:50pm 8ft 10s 7s 7 11 mph 1014.8mb 76f 72f
4:50pm 7ft 9s 7s 9 13 mph 1015.3mb 76f 72f
3:50pm 6ft 7s 6s 11 13 mph 1015.9mb 76f 72f
2:50pm 6.5ft 7s 6s 9 13 mph 1015.9mb 76f 73f
1:50pm 6ft 7s 6s 11 16 mph 1015.5mb 76f 72f
12:50pm 6ft 7s 6s 16 20 mph 1014.8mb 76f 73f
11:50am 6.5ft 7s 6s 18 22 mph 1014.1mb 76f 73f
10:50am 6ft 7s 6s 13 16 mph 1013.2mb 76f 73f
9:50am 6ft 7s 6s 16 20 mph 1012.3mb 76f 73f
8:50am 6.5ft 7s 6s 16 18 mph 1012.4mb 76f 73f
7:50am 7ft 7s 6s 16 20 mph 1011.8mb 76f 71f
6:50am 6.5ft 6s 5s 20 27 mph 1011.6mb 76f 73f
5:50am 7ft 6s 5s 25 31 mph 1011.2mb 76f 73f
4:50am 6ft 7s 5s 22 29 mph 1011.2mb 76f 76f
3:50am 6.5ft 6s 5s 25 29 mph 1011.6mb 76f 76f
2:50am 6ft 6s 5s 25 27 mph 1012.1mb 76f 76f
1:50am 6ft 6s 5s 20 25 mph 1012.5mb 76f 76f
12:50am 6ft 6s 5s 20 25 mph 1012.6mb 76f 76f
Sat 01/24 11:50pm 7ft 6s 6s 20 25 mph 1012.3mb 76f 76f
10:50pm 7ft 6s 5s 22 27 mph 1011.7mb 76f 76f
9:50pm 6ft 6s 5s 25 29 mph 1010.8mb 76f 75f
8:50pm 6ft 6s 5s 22 27 mph 1011mb 76f 74f
7:50pm 5.5ft 5s 5s 25 31 mph 1011.2mb 76f 76f
6:50pm 5ft 5s 5s 25 29 mph 1012.1mb 76f 76f
5:50pm 5ft 10s 5s 22 27 mph 1013.2mb 76f 76f
4:50pm 5ft 10s 5s 20 25 mph 1014.6mb 76f 76f
3:50pm 5ft 5s 5s 20 25 mph 1015.5mb 76f 76f
2:50pm 5ft 10s 5s 22 27 mph 1016mb 76f 75f
1:50pm 4.5ft 9s 5s 18 22 mph 1016.2mb 76f 75f
12:50pm 4.5ft 6s 5s 18 25 mph 1016.4mb 76f 75f
11:50am 4.5ft 10s 5s 18 22 mph 1016.1mb 76f 74f
10:50am 4.5ft 10s 5s 16 20 mph 1016.2mb 76f 74f
9:50am 5ft 9s 5s 16 20 mph 1016.1mb 76f 74f
8:50am 4.5ft 8s 5s 16 20 mph 1016.6mb 76f 74f
7:50am 5ft 6s 5s 18 22 mph 1016.8mb 76f 74f
6:50am 5ft 6s 5s 18 22 mph 1017.5mb 76f 74f
5:50am 5ft 10s 5s 18 20 mph 1018.1mb 76f 73f
4:50am 5ft 9s 5s 18 20 mph 1018.8mb 76f 74f
3:50am 5ft 10s 5s 18 22 mph 1019.4mb 76f 74f
2:50am 5ft 8s 5s 20 25 mph 1019.5mb 76f 74f
1:50am 5ft 8s 5s 22 27 mph 1019.6mb 76f 73f
12:50am 5ft 7s 5s 18 22 mph 1020.2mb 76f 73f
Fri 01/23 11:50pm 5.5ft 9s 5s 20 22 mph 1020mb 76f 73f
10:50pm 5ft 6s 5s 20 25 mph 1019.6mb 76f 73f
9:50pm 4.5ft 6s 5s 16 20 mph 1019.3mb 76f 73f
8:50pm 4.5ft 5s 5s 18 22 mph 1019.3mb 76f 73f
7:50pm 4.5ft 6s 5s 18 20 mph 1019.2mb 76f 73f
6:50pm 4ft 9s 5s 11 20 mph 1020.2mb 76f 72f
5:50pm 4ft 9s 5s 16 20 mph 1020.2mb 76f 72f
4:50pm 3.5ft 5s 5s 11 18 mph 1021mb 77f 73f
3:50pm 3.5ft 8s 6s 9 11 mph 1021.8mb 76f 73f
2:50pm 3ft 8s 5s 11 13 mph 1022.1mb 76f 73f
1:50pm 3.5ft 10s 6s 11
mph
1021.9mb 76f 73f
12:50pm 3.5ft 9s 6s 9 13 mph 1021.4mb 76f 73f
11:50am 3.5ft 10s 6s 11 13 mph 1020.9mb 76f 73f
10:50am 3.5ft 10s 6s 11 13 mph 1020.6mb 76f 73f
9:50am 3.5ft 9s 6s 9 11 mph 1020.4mb 76f 73f
8:50am 3.5ft 9s 6s 9 11 mph 1020.3mb 76f 73f
7:50am 3.5ft 9s 6s 9 11 mph 1020.4mb 76f 73f
6:50am 3.5ft 10s 6s 9 13 mph 1020.3mb 76f 73f
5:50am 3.5ft 9s 6s 9 11 mph 1020.9mb 76f 73f
4:50am 3.5ft 10s 6s 7 9 mph 1021.2mb 76f 73f
3:50am 3.5ft 10s 6s 7 11 mph 1021.4mb 76f 73f
2:50am 3.5ft 9s 6s 4 7 mph 1021.6mb 76f 73f
1:50am 3.5ft 9s 7s 7 9 mph 1021.2mb 76f 73f